Time;durP1;ratioP1;P1;durP2;ratioP2;P2;SDS_P1;SDS_P2;PMS_P1;PMS_P2;Temp;Humidity;BMP_temperature;BMP_pressure;BME280_temperature;BME280_humidity;BME280_pressure;Samples;Min_cycle;Max_cycle;Signal;HPM_P1;HPM_P2
2023/02/23 00:00:52;;;;;;;17.70;16.77;;;18.80;73.90;;;;;;4975135;28;20527;-62
2023/02/23 00:03:20;;;;;;;19.00;17.80;;;18.80;74.70;;;;;;4991391;28;20479;-65
2023/02/23 00:05:47;;;;;;;17.43;16.23;;;18.80;73.90;;;;;;4991457;28;20529;-64
2023/02/23 00:08:14;;;;;;;18.57;17.27;;;18.80;73.90;;;;;;4991322;28;20565;-64
2023/02/23 00:10:43;;;;;;;17.43;16.53;;;18.80;73.90;;;;;;4990990;28;20475;-63
2023/02/23 00:13:10;;;;;;;19.43;17.53;;;18.80;73.90;;;;;;4991307;28;20454;-64
2023/02/23 00:15:37;;;;;;;18.10;16.90;;;18.80;73.90;;;;;;4991353;28;20959;-64
2023/02/23 00:18:04;;;;;;;17.47;16.20;;;18.80;73.90;;;;;;4991281;28;20450;-63
2023/02/23 00:20:33;;;;;;;17.23;16.33;;;18.80;73.80;;;;;;4977588;28;20494;-63
2023/02/23 00:23:00;;;;;;;19.87;18.30;;;18.80;73.80;;;;;;4971944;28;20801;-63
2023/02/23 00:25:29;;;;;;;16.23;15.43;;;18.80;73.60;;;;;;4971659;28;20452;-63
2023/02/23 00:27:57;;;;;;;16.87;16.00;;;18.80;73.70;;;;;;4971639;28;20488;-65
2023/02/23 00:30:24;;;;;;;16.53;15.53;;;18.80;73.80;;;;;;4971610;28;20479;-65
2023/02/23 00:32:52;;;;;;;17.87;16.53;;;18.80;73.70;;;;;;4971696;28;20476;-65
2023/02/23 00:35:19;;;;;;;17.30;16.30;;;18.80;73.80;;;;;;4971533;28;20849;-65
2023/02/23 00:37:49;;;;;;;17.13;16.03;;;18.80;73.80;;;;;;4971541;28;20491;-64
2023/02/23 00:40:18;;;;;;;19.07;17.70;;;18.80;73.80;;;;;;4971626;28;20478;-64
2023/02/23 00:42:48;;;;;;;17.87;16.57;;;18.80;73.60;;;;;;4971534;28;20534;-65
2023/02/23 00:45:15;;;;;;;16.50;15.70;;;18.80;73.60;;;;;;4971384;28;20484;-64
2023/02/23 00:47:44;;;;;;;15.13;14.43;;;18.70;73.50;;;;;;4975214;28;20489;-65
2023/02/23 00:50:13;;;;;;;18.23;17.00;;;18.70;73.50;;;;;;4990605;28;21014;-64
2023/02/23 00:52:42;;;;;;;16.30;15.50;;;18.70;73.40;;;;;;4990893;28;20451;-65
2023/02/23 00:55:12;;;;;;;15.93;15.13;;;18.80;73.50;;;;;;4990697;28;20534;-65
2023/02/23 00:57:39;;;;;;;16.70;15.70;;;18.70;73.50;;;;;;4987821;28;20462;-65
2023/02/23 01:00:16;;;;;;;16.47;15.37;;;18.70;73.40;;;;;;4970210;28;20890;-65
2023/02/23 01:02:43;;;;;;;17.27;16.10;;;18.70;73.40;;;;;;4971265;28;20451;-65
2023/02/23 01:05:11;;;;;;;15.90;15.10;;;18.70;73.40;;;;;;4971382;28;20549;-66
2023/02/23 01:07:39;;;;;;;15.83;15.13;;;18.70;73.50;;;;;;4971007;28;20484;-65
2023/02/23 01:10:17;;;;;;;15.70;15.00;;;18.70;73.50;;;;;;4971070;28;20467;-65
2023/02/23 01:12:47;;;;;;;16.50;15.50;;;18.70;73.50;;;;;;4971224;28;20966;-64
2023/02/23 01:15:14;;;;;;;16.87;16.07;;;18.70;73.50;;;;;;4981243;28;20451;-64
2023/02/23 01:17:41;;;;;;;16.47;15.63;;;18.70;73.40;;;;;;4990317;28;20435;-64
2023/02/23 01:20:14;;;;;;;16.07;15.27;;;18.70;73.50;;;;;;4990284;28;20475;-65
2023/02/23 01:22:42;;;;;;;16.43;15.63;;;18.70;73.40;;;;;;4990376;28;20450;-65
2023/02/23 01:25:09;;;;;;;15.47;14.77;;;18.70;74.10;;;;;;4980303;28;20456;-64
2023/02/23 01:27:38;;;;;;;16.00;15.17;;;18.70;73.40;;;;;;4970712;28;20489;-64
2023/02/23 01:30:08;;;;;;;16.10;15.30;;;18.70;73.40;;;;;;4970720;28;20467;-64
2023/02/23 01:32:36;;;;;;;15.20;14.50;;;18.70;73.40;;;;;;4970890;28;20460;-64
2023/02/23 01:35:04;;;;;;;16.70;15.80;;;18.70;73.40;;;;;;4979285;28;20814;-64
2023/02/23 01:37:31;;;;;;;16.17;15.37;;;18.70;73.50;;;;;;4989811;28;20492;-64
2023/02/23 01:39:58;;;;;;;16.03;15.37;;;18.70;73.50;;;;;;4990061;28;20467;-64
2023/02/23 01:42:25;;;;;;;16.73;15.87;;;18.70;73.60;;;;;;4990027;28;20450;-62
2023/02/23 01:45:26;;;;;;;16.33;15.53;;;18.70;74.40;;;;;;4989574;28;20971;-65
2023/02/23 01:47:56;;;;;;;16.00;15.23;;;18.70;73.60;;;;;;4989783;28;20581;-64
2023/02/23 01:50:27;;;;;;;16.60;15.70;;;18.70;73.60;;;;;;4989595;28;20482;-65
2023/02/23 01:52:55;;;;;;;16.20;15.50;;;18.70;73.60;;;;;;4989847;28;20462;-64
2023/02/23 01:55:27;;;;;;;16.40;15.63;;;18.60;73.50;;;;;;4979053;28;20460;-65
2023/02/23 01:58:01;;;;;;;15.90;15.17;;;18.60;73.40;;;;;;4970546;28;20444;-65
2023/02/23 02:00:31;;;;;;;16.37;15.47;;;18.60;73.40;;;;;;4970338;28;20472;-64
2023/02/23 02:03:02;;;;;;;16.93;16.13;;;18.60;73.50;;;;;;4970363;28;20490;-65
2023/02/23 02:05:29;;;;;;;17.00;16.07;;;18.60;74.20;;;;;;4970215;28;20444;-64
2023/02/23 02:07:58;;;;;;;16.00;15.00;;;18.60;73.50;;;;;;4970136;28;20487;-65
2023/02/23 02:10:46;;;;;;;16.20;15.43;;;18.60;73.50;;;;;;4970081;28;20472;-65
2023/02/23 02:13:21;;;;;;;17.43;16.60;;;18.60;73.50;;;;;;4970259;28;20474;-64
2023/02/23 02:16:13;;;;;;;16.00;15.33;;;18.60;73.50;;;;;;4970135;28;20462;-65
2023/02/23 02:18:55;;;;;;;15.13;14.43;;;18.60;73.60;;;;;;4970120;28;20443;-64
2023/02/23 02:22:04;;;;;;;16.00;15.30;;;18.60;73.60;;;;;;4970135;28;20468;-66
2023/02/23 02:25:10;;;;;;;16.63;15.63;;;18.60;73.60;;;;;;4976805;28;20463;-65
2023/02/23 02:28:21;;;;;;;16.23;15.43;;;18.60;73.70;;;;;;5018420;28;20502;-65
2023/02/23 02:31:20;;;;;;;17.23;16.43;;;18.60;73.70;;;;;;4979010;28;20525;-65
2023/02/23 02:34:10;;;;;;;16.60;15.70;;;18.60;73.70;;;;;;4969959;28;20501;-64
2023/02/23 02:37:13;;;;;;;15.13;14.63;;;18.60;73.80;;;;;;4969793;28;20448;-65
2023/02/23 02:39:52;;;;;;;16.00;15.40;;;18.60;73.80;;;;;;5003890;28;20818;-65
2023/02/23 02:42:22;;;;;;;16.00;15.30;;;18.60;73.90;;;;;;4969876;28;20534;-65
2023/02/23 02:44:56;;;;;;;15.70;14.97;;;18.50;73.80;;;;;;4969838;28;20474;-64
2023/02/23 02:47:28;;;;;;;16.40;15.70;;;18.50;73.90;;;;;;4969698;28;20480;-65
2023/02/23 02:50:05;;;;;;;16.57;15.87;;;18.60;73.80;;;;;;4969658;28;20468;-65
2023/02/23 02:52:39;;;;;;;16.03;15.43;;;18.60;74.00;;;;;;4969742;28;20458;-65
2023/02/23 02:55:14;;;;;;;15.33;14.73;;;18.60;73.90;;;;;;4969834;28;20494;-65
2023/02/23 02:57:45;;;;;;;15.83;15.13;;;18.60;73.90;;;;;;4969570;28;21000;-65
2023/02/23 04:19:03;;;;;;;17.50;16.60;;;18.40;73.90;;;;;;4991311;28;20431;-64
2023/02/23 04:21:29;;;;;;;16.73;16.03;;;18.50;74.00;;;;;;4990471;28;20561;-64
2023/02/23 04:23:56;;;;;;;16.07;15.37;;;18.40;73.80;;;;;;4991286;28;20718;-64
2023/02/23 04:26:23;;;;;;;16.33;15.73;;;18.40;73.70;;;;;;4990891;28;20538;-64
2023/02/23 04:28:50;;;;;;;16.57;15.87;;;18.40;73.70;;;;;;4991058;28;20566;-64
2023/02/23 04:31:17;;;;;;;17.03;16.33;;;18.40;73.70;;;;;;4990736;28;20554;-66
2023/02/23 04:33:45;;;;;;;18.20;17.20;;;18.40;73.70;;;;;;4990972;28;20451;-65
2023/02/23 04:36:12;;;;;;;17.13;16.27;;;18.50;73.80;;;;;;4990697;28;21029;-65
2023/02/23 04:38:39;;;;;;;16.40;15.70;;;18.40;73.60;;;;;;4990732;28;20530;-65
2023/02/23 04:41:06;;;;;;;16.10;15.50;;;18.40;73.60;;;;;;4990937;28;21052;-65
2023/02/23 04:43:33;;;;;;;16.70;15.93;;;18.40;73.60;;;;;;4991010;28;20859;-65
2023/02/23 04:46:00;;;;;;;16.70;16.00;;;18.40;73.50;;;;;;4990621;28;20442;-65
2023/02/23 04:48:27;;;;;;;16.50;15.67;;;18.40;73.50;;;;;;4990479;28;20889;-65
2023/02/23 04:50:55;;;;;;;15.80;14.90;;;18.40;73.50;;;;;;4990519;28;20592;-65
2023/02/23 04:53:22;;;;;;;16.30;15.67;;;18.40;73.40;;;;;;4990799;28;20443;-65
2023/02/23 04:55:49;;;;;;;15.37;14.67;;;18.40;73.50;;;;;;4990689;28;20892;-65
2023/02/23 04:58:16;;;;;;;16.27;15.53;;;18.40;73.50;;;;;;4990301;28;20444;-65
2023/02/23 05:00:42;;;;;;;16.03;15.23;;;18.40;73.50;;;;;;4990513;28;20536;-65
2023/02/23 05:03:11;;;;;;;16.40;15.70;;;18.40;73.50;;;;;;4990762;28;20462;-65
2023/02/23 05:05:38;;;;;;;15.47;14.87;;;18.40;73.50;;;;;;4990545;28;21013;-65
2023/02/23 05:08:06;;;;;;;15.53;14.93;;;18.40;73.50;;;;;;4988942;28;20865;-65
2023/02/23 05:10:33;;;;;;;16.93;16.23;;;18.40;73.60;;;;;;4971046;28;20486;-64
2023/02/23 05:13:00;;;;;;;16.30;15.60;;;18.40;73.60;;;;;;4971148;28;20542;-65
2023/02/23 05:15:27;;;;;;;15.40;14.80;;;18.40;73.50;;;;;;4971047;28;20811;-65
2023/02/23 05:17:55;;;;;;;16.03;15.33;;;18.40;73.60;;;;;;4970928;28;20535;-65
2023/02/23 05:20:23;;;;;;;15.07;14.47;;;18.40;73.60;;;;;;4989833;28;20471;-64
2023/02/23 05:22:50;;;;;;;15.73;15.07;;;18.40;73.60;;;;;;4990298;28;20451;-64
2023/02/23 05:25:18;;;;;;;16.30;15.60;;;18.40;73.60;;;;;;4990062;28;20826;-64
2023/02/23 05:27:45;;;;;;;16.73;15.93;;;18.40;73.70;;;;;;4989813;28;20964;-64
2023/02/23 05:30:12;;;;;;;14.40;13.80;;;18.40;73.60;;;;;;4990098;28;20494;-64
2023/02/23 05:32:39;;;;;;;15.70;14.83;;;18.40;73.50;;;;;;4990059;28;20451;-64
2023/02/23 05:35:06;;;;;;;14.63;13.87;;;18.40;73.60;;;;;;4990093;28;20450;-64
2023/02/23 05:37:33;;;;;;;14.73;13.93;;;18.40;73.70;;;;;;4989560;28;20945;-64
2023/02/23 05:40:00;;;;;;;14.80;14.00;;;18.40;73.60;;;;;;4990123;28;20831;-64
2023/02/23 05:42:28;;;;;;;15.30;14.70;;;18.40;73.50;;;;;;4990036;28;20530;-65
2023/02/23 05:44:56;;;;;;;14.63;14.00;;;18.30;73.50;;;;;;4987927;28;20501;-64
2023/02/23 05:47:23;;;;;;;14.57;13.87;;;18.30;73.30;;;;;;4986509;28;20447;-65
2023/02/23 05:49:50;;;;;;;14.40;13.60;;;18.30;73.40;;;;;;4989546;28;20489;-65
2023/02/23 05:52:16;;;;;;;15.23;14.50;;;18.30;73.50;;;;;;4990380;28;20538;-63
2023/02/23 05:54:45;;;;;;;14.93;14.33;;;18.40;73.50;;;;;;4986908;28;20868;-64
2023/02/23 05:57:12;;;;;;;14.20;13.50;;;18.30;74.20;;;;;;4970125;28;20452;-64
2023/02/23 05:59:40;;;;;;;15.40;14.60;;;18.30;73.50;;;;;;4970338;28;20562;-64
2023/02/23 06:02:07;;;;;;;14.73;14.10;;;18.30;73.40;;;;;;4970400;28;20447;-65
2023/02/23 06:04:34;;;;;;;13.30;12.80;;;18.30;73.40;;;;;;4970292;28;21029;-64
2023/02/23 06:07:01;;;;;;;13.67;13.07;;;18.30;73.40;;;;;;4970126;28;20546;-65
2023/02/23 06:09:28;;;;;;;13.53;13.03;;;18.40;73.60;;;;;;4970208;28;20850;-65
2023/02/23 06:11:54;;;;;;;14.57;13.97;;;18.30;73.50;;;;;;4970094;28;20547;-64
2023/02/23 06:14:21;;;;;;;14.10;13.07;;;18.30;73.50;;;;;;4970291;28;20899;-64
2023/02/23 06:16:49;;;;;;;14.50;13.90;;;18.40;73.60;;;;;;4970364;28;20448;-63
2023/02/23 06:19:16;;;;;;;14.83;14.13;;;18.40;73.60;;;;;;4970049;28;21026;-64
2023/02/23 06:21:43;;;;;;;13.93;13.30;;;18.40;73.60;;;;;;4970006;28;20467;-62
2023/02/23 06:24:11;;;;;;;14.50;13.70;;;18.30;73.50;;;;;;4970087;28;20623;-65
2023/02/23 06:26:37;;;;;;;14.10;13.50;;;18.30;73.50;;;;;;4969811;28;20452;-65
2023/02/23 06:29:04;;;;;;;14.97;14.33;;;18.30;73.50;;;;;;4969992;28;20579;-66
2023/02/23 06:31:31;;;;;;;14.23;13.70;;;18.30;73.60;;;;;;4969997;28;20463;-65
2023/02/23 06:33:59;;;;;;;13.77;13.20;;;18.30;73.50;;;;;;4969868;28;20554;-64
2023/02/23 06:36:26;;;;;;;15.37;14.67;;;18.30;73.50;;;;;;4983587;28;21049;-65
2023/02/23 06:38:56;;;;;;;15.40;14.47;;;18.30;73.50;;;;;;4989283;28;20542;-64
2023/02/23 06:41:23;;;;;;;14.60;14.00;;;18.30;73.50;;;;;;4989264;28;20533;-64
2023/02/23 06:43:50;;;;;;;14.10;13.40;;;18.30;73.90;;;;;;4988997;28;20454;-64
2023/02/23 06:46:17;;;;;;;15.60;14.60;;;18.30;74.70;;;;;;4988971;28;20447;-64
2023/02/23 06:48:44;;;;;;;14.60;13.70;;;18.30;75.60;;;;;;4989007;28;20491;-66
2023/02/23 06:51:12;;;;;;;14.20;13.40;;;18.30;76.60;;;;;;4989017;28;20478;-67
2023/02/23 06:53:39;;;;;;;14.57;13.90;;;18.30;78.20;;;;;;4988885;28;20546;-67
2023/02/23 06:56:07;;;;;;;12.90;12.27;;;18.40;80.20;;;;;;4989053;28;20442;-67
2023/02/23 06:58:33;;;;;;;15.23;13.97;;;18.40;80.30;;;;;;4990955;28;20522;-66
2023/02/23 07:01:00;;;;;;;15.17;14.17;;;18.30;79.50;;;;;;4992356;28;20557;-66
2023/02/23 07:03:27;;;;;;;14.80;13.80;;;18.30;78.90;;;;;;4992423;28;20449;-67
2023/02/23 07:05:54;;;;;;;14.67;13.97;;;18.30;78.60;;;;;;4992442;28;20545;-66
2023/02/23 07:08:22;;;;;;;14.40;13.30;;;18.30;78.20;;;;;;4992321;28;20924;-67
2023/02/23 07:10:49;;;;;;;16.33;15.23;;;18.30;77.80;;;;;;4992311;28;20467;-67
2023/02/23 07:13:16;;;;;;;15.17;14.27;;;18.30;77.60;;;;;;4992299;28;20533;-67
2023/02/23 07:15:43;;;;;;;15.93;14.97;;;18.30;77.40;;;;;;4992207;28;20787;-67
2023/02/23 07:18:10;;;;;;;14.67;13.87;;;18.30;77.30;;;;;;4992217;28;20447;-67
2023/02/23 07:20:37;;;;;;;16.10;14.90;;;18.30;77.10;;;;;;4992155;28;20462;-67
2023/02/23 07:23:03;;;;;;;13.67;12.57;;;18.30;76.90;;;;;;4991984;28;21013;-67
2023/02/23 07:25:32;;;;;;;14.37;13.67;;;18.30;76.70;;;;;;4991986;28;20535;-67
2023/02/23 07:27:59;;;;;;;14.93;13.90;;;18.30;76.50;;;;;;4991885;28;20873;-67
2023/02/23 07:30:25;;;;;;;14.20;13.40;;;18.30;76.50;;;;;;4991855;28;20489;-67
2023/02/23 07:32:53;;;;;;;15.80;14.70;;;18.30;76.50;;;;;;4991954;28;20446;-67
2023/02/23 07:35:20;;;;;;;14.90;14.10;;;18.30;76.30;;;;;;4991744;28;20963;-67
2023/02/23 07:37:47;;;;;;;15.53;14.73;;;18.30;76.20;;;;;;4991888;28;20620;-67
2023/02/23 07:40:17;;;;;;;15.47;14.60;;;18.30;76.10;;;;;;4991696;28;20463;-67
2023/02/23 07:42:45;;;;;;;15.10;14.23;;;18.30;76.00;;;;;;4991754;28;20482;-67
2023/02/23 07:45:12;;;;;;;15.47;14.43;;;18.30;75.90;;;;;;4991786;28;20530;-67
2023/02/23 07:47:39;;;;;;;14.70;13.80;;;18.30;76.00;;;;;;4991657;28;20537;-66
2023/02/23 07:50:08;;;;;;;14.90;14.20;;;18.30;75.80;;;;;;4991479;28;20671;-67
2023/02/23 07:52:35;;;;;;;14.80;13.60;;;18.30;75.80;;;;;;4991660;28;20961;-67
2023/02/23 07:55:02;;;;;;;15.67;14.87;;;18.30;75.70;;;;;;4991666;28;20938;-67
2023/02/23 07:57:29;;;;;;;15.40;14.60;;;18.30;75.60;;;;;;4991393;28;20972;-66
2023/02/23 07:59:57;;;;;;;14.70;13.70;;;18.30;75.60;;;;;;4991428;28;20545;-67
2023/02/23 08:02:24;;;;;;;14.23;13.53;;;18.30;75.60;;;;;;4991635;28;20545;-66
2023/02/23 08:04:52;;;;;;;15.27;14.17;;;18.30;75.50;;;;;;4991544;28;20447;-67
2023/02/23 08:07:20;;;;;;;14.83;14.13;;;18.30;75.40;;;;;;4991222;28;20458;-67
2023/02/23 08:09:48;;;;;;;13.97;13.37;;;18.30;75.50;;;;;;4990918;28;20491;-67
2023/02/23 08:12:15;;;;;;;14.43;13.80;;;18.20;75.40;;;;;;4991306;28;20451;-67
2023/02/23 08:14:42;;;;;;;14.00;13.30;;;18.30;75.40;;;;;;4991462;28;20443;-67
2023/02/23 08:17:10;;;;;;;15.13;14.23;;;18.30;75.40;;;;;;4991079;28;20539;-66
2023/02/23 08:19:37;;;;;;;14.47;13.77;;;18.30;75.30;;;;;;4991190;28;20466;-66
2023/02/23 08:22:04;;;;;;;14.30;13.63;;;18.20;75.10;;;;;;4991277;28;20816;-67
2023/02/23 08:24:31;;;;;;;14.00;13.40;;;18.20;75.10;;;;;;4991259;28;20455;-66
2023/02/23 08:26:58;;;;;;;15.03;14.33;;;18.30;75.10;;;;;;4990900;28;20541;-67
2023/02/23 08:29:25;;;;;;;15.13;14.50;;;18.20;74.90;;;;;;4991271;28;20489;-66
2023/02/23 08:31:52;;;;;;;14.67;13.90;;;18.20;74.90;;;;;;4991051;28;20545;-67
2023/02/23 08:34:21;;;;;;;14.47;13.50;;;18.20;74.90;;;;;;4990998;28;20868;-67
2023/02/23 08:36:48;;;;;;;13.90;13.30;;;18.20;74.90;;;;;;4990798;28;20508;-67
2023/02/23 08:39:15;;;;;;;13.90;13.30;;;18.20;74.90;;;;;;4991086;28;20879;-67
2023/02/23 08:41:42;;;;;;;13.50;12.90;;;18.30;74.90;;;;;;4990860;28;20467;-67
2023/02/23 08:44:09;;;;;;;14.07;13.37;;;18.20;74.70;;;;;;4991046;28;20841;-67
2023/02/23 08:46:37;;;;;;;15.47;14.80;;;18.20;74.60;;;;;;4990648;28;20542;-67
2023/02/23 08:49:05;;;;;;;14.20;13.63;;;18.20;74.70;;;;;;4990719;28;20841;-67
2023/02/23 08:51:34;;;;;;;14.77;14.10;;;18.20;74.50;;;;;;4990687;28;20479;-66
2023/02/23 08:54:01;;;;;;;15.07;14.27;;;18.20;74.50;;;;;;4990652;28;20536;-67
2023/02/23 08:56:28;;;;;;;13.40;12.77;;;18.20;74.40;;;;;;4990516;28;20443;-66
2023/02/23 08:58:55;;;;;;;13.90;13.40;;;18.20;74.40;;;;;;4990749;28;20791;-67
2023/02/23 09:01:22;;;;;;;14.70;14.10;;;18.20;74.40;;;;;;4990535;28;20473;-67
2023/02/23 09:03:49;;;;;;;14.63;14.00;;;18.20;74.30;;;;;;4990592;28;20525;-67
2023/02/23 09:06:19;;;;;;;14.27;13.60;;;18.30;74.40;;;;;;4990314;28;20447;-67
2023/02/23 09:08:47;;;;;;;13.87;13.27;;;18.20;74.30;;;;;;4990774;28;20443;-66
2023/02/23 09:11:14;;;;;;;12.60;12.00;;;18.20;74.20;;;;;;4990367;28;20473;-66
2023/02/23 09:13:41;;;;;;;14.60;13.87;;;18.20;75.00;;;;;;4990444;28;20545;-66
2023/02/23 09:16:08;;;;;;;13.50;12.80;;;18.20;74.20;;;;;;4990174;28;20537;-67
2023/02/23 09:18:35;;;;;;;14.50;13.80;;;18.20;74.20;;;;;;4990311;28;20443;-66
2023/02/23 09:21:06;;;;;;;14.37;13.70;;;18.20;74.20;;;;;;4989516;28;20557;-67
2023/02/23 09:23:33;;;;;;;14.20;13.43;;;18.20;74.20;;;;;;4990512;28;20462;-66
2023/02/23 09:26:04;;;;;;;14.43;13.73;;;18.20;74.20;;;;;;4990247;28;20810;-67
2023/02/23 09:28:32;;;;;;;14.67;13.97;;;18.20;74.10;;;;;;4990248;28;20462;-67
2023/02/23 09:31:05;;;;;;;13.43;12.83;;;18.20;74.10;;;;;;4990009;28;20497;-67
2023/02/23 09:33:32;;;;;;;13.60;13.10;;;18.20;74.00;;;;;;4990271;28;20476;-67
2023/02/23 09:35:59;;;;;;;13.00;12.60;;;18.20;74.10;;;;;;4989999;28;20534;-67
2023/02/23 09:38:26;;;;;;;14.07;13.43;;;18.20;74.10;;;;;;4990172;28;20876;-66
2023/02/23 09:40:54;;;;;;;14.13;13.43;;;18.20;74.00;;;;;;4990004;28;20550;-66
2023/02/23 09:43:28;;;;;;;15.20;14.37;;;18.20;74.00;;;;;;4990017;28;20443;-66
2023/02/23 09:46:00;;;;;;;14.23;13.53;;;18.20;73.90;;;;;;4989890;28;20453;-66
2023/02/23 09:48:29;;;;;;;15.03;14.23;;;18.20;74.00;;;;;;4990059;28;20451;-66
2023/02/23 09:50:57;;;;;;;14.93;14.10;;;18.20;73.80;;;;;;4989582;28;20487;-66
2023/02/23 09:53:35;;;;;;;15.63;14.93;;;18.20;73.90;;;;;;4989892;28;20455;-66
2023/02/23 09:56:06;;;;;;;14.33;13.60;;;18.20;73.80;;;;;;4989826;28;20466;-67
2023/02/23 09:58:35;;;;;;;15.37;14.70;;;18.20;73.80;;;;;;4989945;28;20795;-66
2023/02/23 10:01:38;;;;;;;15.00;14.30;;;18.20;73.80;;;;;;4989840;28;20463;-67
2023/02/23 10:04:10;;;;;;;14.97;14.27;;;18.20;73.80;;;;;;4987399;28;20542;-67
2023/02/23 10:06:39;;;;;;;16.00;15.10;;;18.20;73.70;;;;;;4989711;28;20443;-66
2023/02/23 10:09:16;;;;;;;15.00;14.30;;;18.20;73.90;;;;;;4989807;28;20449;-66
2023/02/23 10:11:51;;;;;;;13.60;12.80;;;18.10;73.90;;;;;;4989829;28;20835;-66
2023/02/23 10:14:33;;;;;;;14.87;13.93;;;18.10;73.90;;;;;;4989852;28;20457;-66
2023/02/23 10:17:13;;;;;;;14.43;13.77;;;18.10;73.80;;;;;;4989606;28;20568;-66
2023/02/23 10:19:50;;;;;;;13.67;13.17;;;18.10;73.70;;;;;;4989827;28;20443;-66
2023/02/23 10:22:19;;;;;;;14.67;13.97;;;18.20;73.80;;;;;;4989648;28;20449;-66
2023/02/23 10:24:52;;;;;;;14.17;13.53;;;18.10;73.80;;;;;;4989606;28;20443;-66
2023/02/23 10:27:22;;;;;;;13.20;12.80;;;18.20;73.80;;;;;;4991489;28;20975;-67
2023/02/23 10:29:54;;;;;;;14.00;13.40;;;18.20;73.80;;;;;;4992230;28;21035;-67
2023/02/23 10:32:28;;;;;;;14.90;14.30;;;18.10;73.70;;;;;;4995192;28;20439;-66
2023/02/23 10:34:56;;;;;;;13.10;12.50;;;18.10;73.70;;;;;;4998440;28;20452;-67
2023/02/23 10:37:24;;;;;;;14.00;13.40;;;18.10;73.50;;;;;;4998039;28;20450;-67
2023/02/23 10:39:52;;;;;;;13.60;13.00;;;18.10;73.50;;;;;;4998327;28;20541;-67
2023/02/23 10:42:23;;;;;;;13.53;12.87;;;18.10;73.50;;;;;;4999063;28;20457;-67
2023/02/23 10:44:51;;;;;;;14.20;13.60;;;18.20;73.60;;;;;;4996578;28;20451;-67
2023/02/23 10:47:21;;;;;;;14.13;13.33;;;18.20;73.50;;;;;;4995433;28;20537;-66
2023/02/23 10:49:50;;;;;;;15.77;14.83;;;18.10;73.40;;;;;;4995461;28;20892;-66
2023/02/23 10:52:21;;;;;;;15.17;14.40;;;18.10;73.40;;;;;;4995754;28;21049;-67
2023/02/23 10:54:50;;;;;;;14.63;13.87;;;18.10;73.30;;;;;;4995732;28;20549;-67
2023/02/23 10:57:23;;;;;;;15.50;14.60;;;18.10;73.30;;;;;;4995333;28;20454;-67
2023/02/23 11:00:07;;;;;;;14.83;14.23;;;18.10;73.20;;;;;;4995555;28;20439;-67
2023/02/23 11:02:36;;;;;;;14.43;13.77;;;18.10;73.10;;;;;;4995566;28;20930;-66
2023/02/23 11:05:04;;;;;;;13.70;12.97;;;18.10;73.10;;;;;;4995466;28;20504;-67
2023/02/23 11:07:32;;;;;;;14.20;13.60;;;18.10;73.00;;;;;;4995339;28;20447;-66
2023/02/23 11:10:18;;;;;;;14.60;13.90;;;18.10;73.00;;;;;;4995224;28;20486;-66
2023/02/23 11:12:45;;;;;;;14.70;14.00;;;18.20;73.10;;;;;;4995427;28;20508;-67
2023/02/23 11:15:28;;;;;;;14.27;13.60;;;18.10;73.00;;;;;;4995292;28;20539;-67
2023/02/23 11:17:56;;;;;;;14.57;13.90;;;18.10;73.00;;;;;;4995355;28;20808;-66
2023/02/23 11:20:29;;;;;;;13.73;12.90;;;18.10;73.70;;;;;;4995285;28;20799;-66
2023/02/23 11:22:56;;;;;;;13.27;12.77;;;18.10;72.90;;;;;;4995257;28;20450;-67
2023/02/23 11:25:28;;;;;;;13.83;13.23;;;18.10;72.90;;;;;;4995056;28;20455;-66
2023/02/23 11:27:56;;;;;;;14.60;14.00;;;18.10;72.90;;;;;;4995279;28;20814;-66
2023/02/23 11:30:31;;;;;;;14.87;14.07;;;18.10;72.80;;;;;;4994994;28;20490;-66
2023/02/23 11:33:08;;;;;;;14.10;13.50;;;18.10;73.00;;;;;;4995141;28;20848;-66
2023/02/23 11:35:35;;;;;;;13.47;12.97;;;18.10;72.80;;;;;;4995013;28;20453;-66
2023/02/23 11:38:16;;;;;;;12.93;12.37;;;18.10;72.80;;;;;;4994974;28;20828;-67
2023/02/23 11:40:57;;;;;;;14.00;13.40;;;18.10;72.80;;;;;;4995069;28;20463;-66
2023/02/23 11:43:24;;;;;;;13.53;12.83;;;18.10;72.70;;;;;;4993432;28;20953;-67
2023/02/23 11:45:55;;;;;;;13.70;13.10;;;18.10;72.70;;;;;;4991781;28;20449;-66
2023/02/23 11:48:26;;;;;;;14.20;13.53;;;18.10;73.50;;;;;;4992005;28;20551;-66
2023/02/23 11:50:54;;;;;;;13.27;12.77;;;18.10;72.80;;;;;;4992132;28;20494;-68
2023/02/23 11:53:28;;;;;;;13.30;12.80;;;18.10;72.70;;;;;;4991699;28;20443;-66
2023/02/23 11:55:58;;;;;;;15.43;14.73;;;18.10;72.70;;;;;;4991541;28;20447;-67
2023/02/23 11:58:32;;;;;;;14.40;13.67;;;18.10;72.80;;;;;;4991624;28;20930;-67
2023/02/23 12:01:09;;;;;;;14.30;13.70;;;18.10;72.70;;;;;;4991480;28;20463;-66
2023/02/23 12:03:37;;;;;;;13.33;12.83;;;18.10;72.70;;;;;;4991564;28;20815;-67
2023/02/23 12:06:04;;;;;;;14.87;14.27;;;18.10;72.60;;;;;;4991369;28;20451;-66
2023/02/23 12:08:42;;;;;;;14.37;13.80;;;18.10;72.50;;;;;;4991509;28;20454;-67
2023/02/23 12:11:14;;;;;;;14.67;13.87;;;18.10;72.50;;;;;;4991476;28;20486;-65
2023/02/23 12:13:47;;;;;;;13.57;13.07;;;18.10;72.40;;;;;;4991431;28;20810;-65
2023/02/23 12:16:18;;;;;;;14.47;13.90;;;18.10;72.40;;;;;;4991205;28;20447;-66
2023/02/23 12:18:49;;;;;;;14.00;13.40;;;18.10;72.40;;;;;;4991339;28;20901;-67
2023/02/23 12:21:27;;;;;;;14.03;13.33;;;18.10;72.40;;;;;;4991312;28;20462;-66
2023/02/23 12:24:03;;;;;;;13.87;13.17;;;18.10;72.30;;;;;;4991321;28;20885;-67
2023/02/23 12:26:33;;;;;;;13.60;13.00;;;18.10;72.30;;;;;;4990964;28;20447;-67
2023/02/23 12:29:05;;;;;;;13.83;13.30;;;18.00;72.20;;;;;;4991291;28;20821;-66
2023/02/23 12:31:42;;;;;;;14.37;13.80;;;18.00;72.20;;;;;;4991118;28;20487;-67
2023/02/23 12:34:14;;;;;;;14.40;13.60;;;18.00;72.10;;;;;;4991236;28;20443;-67
2023/02/23 12:36:44;;;;;;;13.23;12.73;;;18.00;72.10;;;;;;4990940;28;20458;-66
2023/02/23 12:39:18;;;;;;;13.60;13.00;;;18.00;72.10;;;;;;4991183;28;20454;-68
2023/02/23 12:41:51;;;;;;;13.40;12.90;;;18.10;72.20;;;;;;4991044;28;20477;-66
2023/02/23 12:44:32;;;;;;;14.10;13.33;;;18.10;72.20;;;;;;4990860;28;20449;-66
2023/02/23 12:47:07;;;;;;;13.20;12.80;;;18.00;72.10;;;;;;4990746;28;20442;-67
2023/02/23 12:49:39;;;;;;;13.70;13.20;;;18.00;72.00;;;;;;4990773;28;20950;-67
2023/02/23 12:52:13;;;;;;;12.30;11.90;;;18.00;72.00;;;;;;4990792;28;20479;-66
2023/02/23 12:54:40;;;;;;;13.67;13.17;;;18.00;72.10;;;;;;4990403;28;20459;-67
2023/02/23 12:57:22;;;;;;;13.47;12.97;;;18.00;72.10;;;;;;4989819;28;20443;-68
2023/02/23 13:00:33;;;;;;;13.30;12.80;;;18.00;72.00;;;;;;4990711;28;20447;-68
2023/02/23 13:03:30;;;;;;;13.33;12.63;;;18.00;72.00;;;;;;4990754;28;21085;-68
2023/02/23 13:06:04;;;;;;;13.30;12.90;;;18.00;72.00;;;;;;4990496;28;20449;-68
2023/02/23 13:08:43;;;;;;;13.00;12.50;;;18.00;72.00;;;;;;4990517;28;20454;-68
2023/02/23 13:11:22;;;;;;;13.83;13.33;;;18.00;72.10;;;;;;4990435;28;20490;-68
2023/02/23 13:13:56;;;;;;;13.63;13.13;;;18.00;72.00;;;;;;4990489;28;20450;-68
2023/02/23 13:16:29;;;;;;;13.80;13.20;;;18.00;72.10;;;;;;4990276;28;20443;-67
2023/02/23 13:19:07;;;;;;;13.93;13.37;;;18.00;72.00;;;;;;4990409;28;20496;-68
2023/02/23 13:21:39;;;;;;;12.93;12.43;;;18.00;72.00;;;;;;4990329;28;20550;-67
2023/02/23 13:24:10;;;;;;;12.90;12.40;;;18.00;72.00;;;;;;4990341;28;20458;-67
2023/02/23 13:26:44;;;;;;;12.77;12.30;;;18.00;72.00;;;;;;4990190;28;20451;-67
2023/02/23 13:29:21;;;;;;;13.37;12.77;;;18.00;72.00;;;;;;4990231;28;20447;-67
2023/02/23 13:31:48;;;;;;;13.83;13.13;;;18.00;72.00;;;;;;4990146;28;20489;-67
2023/02/23 13:34:26;;;;;;;12.87;12.37;;;18.00;71.90;;;;;;4990219;28;20900;-67
2023/02/23 13:36:54;;;;;;;13.33;12.93;;;18.00;71.90;;;;;;4989999;28;20447;-67
2023/02/23 13:39:35;;;;;;;12.57;12.10;;;18.00;71.80;;;;;;4990008;28;20542;-68
2023/02/23 13:42:19;;;;;;;12.27;11.77;;;18.00;71.80;;;;;;4990119;28;20449;-68
2023/02/23 13:44:51;;;;;;;12.40;11.93;;;18.00;71.80;;;;;;4990087;28;20457;-67
2023/02/23 13:47:32;;;;;;;13.87;13.37;;;18.00;72.50;;;;;;4989910;28;20447;-68
2023/02/23 13:50:07;;;;;;;12.07;11.67;;;18.00;71.80;;;;;;4989776;28;20485;-67
2023/02/23 13:52:39;;;;;;;12.47;11.97;;;18.00;72.50;;;;;;4989902;28;20450;-67
2023/02/23 13:55:50;;;;;;;12.50;12.10;;;18.00;71.70;;;;;;4989956;28;20454;-67
2023/02/23 13:58:21;;;;;;;13.13;12.53;;;18.00;71.70;;;;;;4989722;28;20504;-68
2023/02/23 14:00:54;;;;;;;12.50;12.10;;;18.00;71.70;;;;;;4989859;28;20469;-67
2023/02/23 14:03:26;;;;;;;12.10;11.70;;;18.00;71.70;;;;;;4989935;28;20954;-68
2023/02/23 14:05:59;;;;;;;12.23;11.83;;;18.00;71.70;;;;;;4989589;28;20465;-67